sensor_id;sensor_type;location;lat;lon;timestamp;P1;durP1;ratioP1;P2;durP2;ratioP2
28531;SDS011;15738;44.860;10.066;2022-08-05T00:01:15;7.65;;;2.00;;
28531;SDS011;15738;44.860;10.066;2022-08-05T00:04:12;8.32;;;1.98;;
28531;SDS011;15738;44.860;10.066;2022-08-05T00:06:58;6.65;;;1.88;;
28531;SDS011;15738;44.860;10.066;2022-08-05T00:10:04;10.55;;;2.38;;
28531;SDS011;15738;44.860;10.066;2022-08-05T00:12:53;2.30;;;1.80;;
28531;SDS011;15738;44.860;10.066;2022-08-05T00:15:40;4.55;;;2.10;;
28531;SDS011;15738;44.860;10.066;2022-08-05T00:18:45;4.25;;;1.98;;
28531;SDS011;15738;44.860;10.066;2022-08-05T00:21:32;5.25;;;1.75;;
28531;SDS011;15738;44.860;10.066;2022-08-05T00:24:20;4.80;;;1.90;;
28531;SDS011;15738;44.860;10.066;2022-08-05T00:27:14;3.70;;;2.00;;
28531;SDS011;15738;44.860;10.066;2022-08-05T00:30:01;6.63;;;1.90;;
28531;SDS011;15738;44.860;10.066;2022-08-05T00:32:48;3.67;;;2.00;;
28531;SDS011;15738;44.860;10.066;2022-08-05T00:35:34;8.35;;;2.03;;
28531;SDS011;15738;44.860;10.066;2022-08-05T00:38:32;4.32;;;2.15;;
28531;SDS011;15738;44.860;10.066;2022-08-05T00:41:28;7.72;;;2.10;;
28531;SDS011;15738;44.860;10.066;2022-08-05T00:44:35;3.72;;;1.75;;
28531;SDS011;15738;44.860;10.066;2022-08-05T00:47:21;6.00;;;2.30;;
28531;SDS011;15738;44.860;10.066;2022-08-05T00:50:07;3.90;;;1.83;;
28531;SDS011;15738;44.860;10.066;2022-08-05T00:52:54;8.65;;;1.85;;
28531;SDS011;15738;44.860;10.066;2022-08-05T00:55:40;4.82;;;2.05;;
28531;SDS011;15738;44.860;10.066;2022-08-05T00:58:28;9.68;;;2.15;;
28531;SDS011;15738;44.860;10.066;2022-08-05T01:01:14;4.55;;;2.50;;
28531;SDS011;15738;44.860;10.066;2022-08-05T01:04:20;5.20;;;2.22;;
28531;SDS011;15738;44.860;10.066;2022-08-05T01:07:13;3.75;;;2.38;;
28531;SDS011;15738;44.860;10.066;2022-08-05T01:10:02;5.30;;;2.08;;
28531;SDS011;15738;44.860;10.066;2022-08-05T01:12:54;6.57;;;2.67;;
28531;SDS011;15738;44.860;10.066;2022-08-05T01:16:04;5.57;;;1.95;;
28531;SDS011;15738;44.860;10.066;2022-08-05T01:18:56;5.82;;;1.75;;
28531;SDS011;15738;44.860;10.066;2022-08-05T01:21:57;4.78;;;1.80;;
28531;SDS011;15738;44.860;10.066;2022-08-05T01:30:58;9.93;;;1.90;;
28531;SDS011;15738;44.860;10.066;2022-08-05T01:34:11;4.20;;;2.00;;
28531;SDS011;15738;44.860;10.066;2022-08-05T01:37:03;6.45;;;2.33;;
28531;SDS011;15738;44.860;10.066;2022-08-05T01:40:02;3.47;;;1.80;;
28531;SDS011;15738;44.860;10.066;2022-08-05T01:42:51;11.10;;;1.77;;
28531;SDS011;15738;44.860;10.066;2022-08-05T01:45:39;5.75;;;2.22;;
28531;SDS011;15738;44.860;10.066;2022-08-05T01:48:27;2.63;;;1.90;;
28531;SDS011;15738;44.860;10.066;2022-08-05T01:51:16;2.65;;;1.80;;
28531;SDS011;15738;44.860;10.066;2022-08-05T01:54:04;4.30;;;1.90;;
28531;SDS011;15738;44.860;10.066;2022-08-05T01:56:54;3.85;;;2.17;;
28531;SDS011;15738;44.860;10.066;2022-08-05T02:00:02;14.75;;;2.28;;
28531;SDS011;15738;44.860;10.066;2022-08-05T02:03:09;5.80;;;1.90;;
28531;SDS011;15738;44.860;10.066;2022-08-05T02:06:19;10.05;;;2.75;;
28531;SDS011;15738;44.860;10.066;2022-08-05T02:09:22;6.28;;;2.15;;
28531;SDS011;15738;44.860;10.066;2022-08-05T02:12:11;3.60;;;2.10;;
28531;SDS011;15738;44.860;10.066;2022-08-05T02:15:12;7.07;;;1.83;;
28531;SDS011;15738;44.860;10.066;2022-08-05T02:18:08;5.63;;;2.20;;
28531;SDS011;15738;44.860;10.066;2022-08-05T02:21:27;7.22;;;2.00;;
28531;SDS011;15738;44.860;10.066;2022-08-05T02:24:30;5.13;;;1.85;;
28531;SDS011;15738;44.860;10.066;2022-08-05T02:27:20;8.25;;;1.98;;
28531;SDS011;15738;44.860;10.066;2022-08-05T02:30:32;6.70;;;2.15;;
28531;SDS011;15738;44.860;10.066;2022-08-05T02:33:40;2.45;;;2.00;;
28531;SDS011;15738;44.860;10.066;2022-08-05T02:36:32;7.20;;;2.03;;
28531;SDS011;15738;44.860;10.066;2022-08-05T02:39:22;3.85;;;1.98;;
28531;SDS011;15738;44.860;10.066;2022-08-05T02:42:09;5.10;;;1.70;;
28531;SDS011;15738;44.860;10.066;2022-08-05T02:45:10;13.50;;;1.98;;
28531;SDS011;15738;44.860;10.066;2022-08-05T02:47:58;6.22;;;2.03;;
28531;SDS011;15738;44.860;10.066;2022-08-05T02:50:59;4.30;;;1.98;;
28531;SDS011;15738;44.860;10.066;2022-08-05T02:53:47;2.63;;;1.70;;
28531;SDS011;15738;44.860;10.066;2022-08-05T02:56:38;3.28;;;1.80;;
28531;SDS011;15738;44.860;10.066;2022-08-05T02:59:29;5.60;;;2.05;;
28531;SDS011;15738;44.860;10.066;2022-08-05T03:02:36;3.92;;;1.98;;
28531;SDS011;15738;44.860;10.066;2022-08-05T03:05:24;5.47;;;2.00;;
28531;SDS011;15738;44.860;10.066;2022-08-05T03:08:29;7.63;;;1.80;;
28531;SDS011;15738;44.860;10.066;2022-08-05T03:11:21;5.85;;;2.38;;
28531;SDS011;15738;44.860;10.066;2022-08-05T03:14:27;9.63;;;2.00;;
28531;SDS011;15738;44.860;10.066;2022-08-05T03:17:14;2.90;;;2.08;;
28531;SDS011;15738;44.860;10.066;2022-08-05T03:20:00;4.80;;;2.15;;
28531;SDS011;15738;44.860;10.066;2022-08-05T03:22:46;7.55;;;2.05;;
28531;SDS011;15738;44.860;10.066;2022-08-05T03:25:35;3.15;;;2.30;;
28531;SDS011;15738;44.860;10.066;2022-08-05T03:28:41;8.07;;;2.20;;
28531;SDS011;15738;44.860;10.066;2022-08-05T03:31:27;5.50;;;2.00;;
28531;SDS011;15738;44.860;10.066;2022-08-05T03:34:33;6.45;;;2.30;;
28531;SDS011;15738;44.860;10.066;2022-08-05T03:37:21;5.55;;;1.98;;
28531;SDS011;15738;44.860;10.066;2022-08-05T03:40:07;5.20;;;2.38;;
28531;SDS011;15738;44.860;10.066;2022-08-05T03:42:56;11.77;;;2.50;;
28531;SDS011;15738;44.860;10.066;2022-08-05T03:45:42;8.95;;;2.10;;
28531;SDS011;15738;44.860;10.066;2022-08-05T03:48:42;8.05;;;2.33;;
28531;SDS011;15738;44.860;10.066;2022-08-05T03:51:34;5.05;;;2.05;;
28531;SDS011;15738;44.860;10.066;2022-08-05T03:54:49;6.63;;;1.90;;
28531;SDS011;15738;44.860;10.066;2022-08-05T03:58:01;7.03;;;2.35;;
28531;SDS011;15738;44.860;10.066;2022-08-05T04:00:53;2.75;;;2.20;;
28531;SDS011;15738;44.860;10.066;2022-08-05T04:03:44;14.55;;;2.22;;
28531;SDS011;15738;44.860;10.066;2022-08-05T04:06:52;9.15;;;2.20;;
28531;SDS011;15738;44.860;10.066;2022-08-05T04:09:40;5.20;;;2.30;;
28531;SDS011;15738;44.860;10.066;2022-08-05T04:12:38;4.65;;;2.20;;
28531;SDS011;15738;44.860;10.066;2022-08-05T04:15:22;5.03;;;2.20;;
28531;SDS011;15738;44.860;10.066;2022-08-05T04:18:08;4.28;;;2.20;;
28531;SDS011;15738;44.860;10.066;2022-08-05T04:21:06;2.67;;;2.10;;
28531;SDS011;15738;44.860;10.066;2022-08-05T04:23:55;3.70;;;2.35;;
28531;SDS011;15738;44.860;10.066;2022-08-05T04:26:53;5.93;;;2.10;;
28531;SDS011;15738;44.860;10.066;2022-08-05T04:29:42;7.35;;;2.25;;
28531;SDS011;15738;44.860;10.066;2022-08-05T04:32:28;5.53;;;2.63;;
28531;SDS011;15738;44.860;10.066;2022-08-05T04:35:20;5.07;;;2.05;;
28531;SDS011;15738;44.860;10.066;2022-08-05T04:38:07;3.08;;;2.00;;
28531;SDS011;15738;44.860;10.066;2022-08-05T04:40:59;8.90;;;1.97;;
28531;SDS011;15738;44.860;10.066;2022-08-05T04:43:48;5.80;;;2.03;;
28531;SDS011;15738;44.860;10.066;2022-08-05T04:46:37;3.38;;;2.10;;
28531;SDS011;15738;44.860;10.066;2022-08-05T04:49:23;3.70;;;1.92;;
28531;SDS011;15738;44.860;10.066;2022-08-05T04:52:28;6.10;;;1.98;;
28531;SDS011;15738;44.860;10.066;2022-08-05T04:55:18;4.90;;;2.28;;
28531;SDS011;15738;44.860;10.066;2022-08-05T04:58:24;8.38;;;2.00;;
28531;SDS011;15738;44.860;10.066;2022-08-05T05:01:10;5.18;;;2.20;;
28531;SDS011;15738;44.860;10.066;2022-08-05T05:03:56;2.28;;;1.92;;
28531;SDS011;15738;44.860;10.066;2022-08-05T05:06:43;8.43;;;2.60;;
28531;SDS011;15738;44.860;10.066;2022-08-05T05:09:36;6.70;;;2.58;;
28531;SDS011;15738;44.860;10.066;2022-08-05T05:12:22;11.10;;;2.20;;
28531;SDS011;15738;44.860;10.066;2022-08-05T05:15:11;4.82;;;2.20;;
28531;SDS011;15738;44.860;10.066;2022-08-05T05:18:01;4.20;;;2.00;;
28531;SDS011;15738;44.860;10.066;2022-08-05T05:20:48;5.60;;;2.10;;
28531;SDS011;15738;44.860;10.066;2022-08-05T05:23:34;3.40;;;1.80;;
28531;SDS011;15738;44.860;10.066;2022-08-05T05:26:40;8.10;;;2.10;;
28531;SDS011;15738;44.860;10.066;2022-08-05T05:29:30;11.43;;;2.15;;
28531;SDS011;15738;44.860;10.066;2022-08-05T05:32:36;8.55;;;2.00;;
28531;SDS011;15738;44.860;10.066;2022-08-05T05:35:25;3.80;;;1.90;;
28531;SDS011;15738;44.860;10.066;2022-08-05T05:38:13;7.00;;;2.08;;
28531;SDS011;15738;44.860;10.066;2022-08-05T05:41:11;4.25;;;1.95;;
28531;SDS011;15738;44.860;10.066;2022-08-05T05:44:00;7.60;;;2.00;;
28531;SDS011;15738;44.860;10.066;2022-08-05T05:47:06;7.18;;;2.35;;
28531;SDS011;15738;44.860;10.066;2022-08-05T05:50:11;9.57;;;2.30;;
28531;SDS011;15738;44.860;10.066;2022-08-05T05:53:04;8.45;;;2.53;;
28531;SDS011;15738;44.860;10.066;2022-08-05T05:56:06;6.03;;;2.70;;
28531;SDS011;15738;44.860;10.066;2022-08-05T05:58:53;9.68;;;2.78;;
28531;SDS011;15738;44.860;10.066;2022-08-05T06:01:40;4.68;;;2.55;;
28531;SDS011;15738;44.860;10.066;2022-08-05T06:04:42;6.75;;;2.50;;
28531;SDS011;15738;44.860;10.066;2022-08-05T06:07:33;14.07;;;2.92;;
28531;SDS011;15738;44.860;10.066;2022-08-05T06:10:26;10.32;;;2.92;;
28531;SDS011;15738;44.860;10.066;2022-08-05T06:13:20;9.93;;;2.80;;
28531;SDS011;15738;44.860;10.066;2022-08-05T06:16:07;14.18;;;3.00;;
28531;SDS011;15738;44.860;10.066;2022-08-05T06:19:13;10.38;;;3.03;;
28531;SDS011;15738;44.860;10.066;2022-08-05T06:22:24;8.88;;;2.63;;
28531;SDS011;15738;44.860;10.066;2022-08-05T06:25:11;10.10;;;2.67;;
28531;SDS011;15738;44.860;10.066;2022-08-05T06:28:17;7.75;;;2.70;;
28531;SDS011;15738;44.860;10.066;2022-08-05T06:31:05;7.22;;;2.55;;
28531;SDS011;15738;44.860;10.066;2022-08-05T06:34:03;11.80;;;2.90;;
28531;SDS011;15738;44.860;10.066;2022-08-05T06:36:52;5.90;;;2.40;;
28531;SDS011;15738;44.860;10.066;2022-08-05T06:39:42;3.25;;;2.30;;
28531;SDS011;15738;44.860;10.066;2022-08-05T06:42:28;3.97;;;2.10;;
28531;SDS011;15738;44.860;10.066;2022-08-05T06:45:14;8.90;;;2.80;;
28531;SDS011;15738;44.860;10.066;2022-08-05T06:48:20;9.52;;;2.67;;
28531;SDS011;15738;44.860;10.066;2022-08-05T06:51:26;9.95;;;2.90;;
28531;SDS011;15738;44.860;10.066;2022-08-05T06:54:15;7.75;;;2.50;;
28531;SDS011;15738;44.860;10.066;2022-08-05T06:57:03;15.00;;;2.92;;
28531;SDS011;15738;44.860;10.066;2022-08-05T07:00:09;6.68;;;2.83;;
28531;SDS011;15738;44.860;10.066;2022-08-05T07:02:56;11.32;;;2.67;;
28531;SDS011;15738;44.860;10.066;2022-08-05T07:05:43;6.50;;;2.58;;
28531;SDS011;15738;44.860;10.066;2022-08-05T07:08:30;11.43;;;2.88;;
28531;SDS011;15738;44.860;10.066;2022-08-05T07:11:17;17.75;;;3.03;;
28531;SDS011;15738;44.860;10.066;2022-08-05T07:14:06;7.53;;;3.10;;
28531;SDS011;15738;44.860;10.066;2022-08-05T07:17:14;5.82;;;2.42;;
28531;SDS011;15738;44.860;10.066;2022-08-05T07:20:20;10.75;;;3.22;;
28531;SDS011;15738;44.860;10.066;2022-08-05T07:23:23;14.18;;;2.78;;
28531;SDS011;15738;44.860;10.066;2022-08-05T07:26:13;8.75;;;3.08;;
28531;SDS011;15738;44.860;10.066;2022-08-05T07:31:53;12.85;;;2.58;;
28531;SDS011;15738;44.860;10.066;2022-08-05T07:34:39;7.07;;;2.40;;
28531;SDS011;15738;44.860;10.066;2022-08-05T07:37:26;10.88;;;2.60;;
28531;SDS011;15738;44.860;10.066;2022-08-05T07:40:21;4.55;;;2.55;;
28531;SDS011;15738;44.860;10.066;2022-08-05T07:43:17;10.07;;;2.20;;
28531;SDS011;15738;44.860;10.066;2022-08-05T07:46:05;6.75;;;2.55;;
28531;SDS011;15738;44.860;10.066;2022-08-05T07:49:09;13.05;;;2.45;;
28531;SDS011;15738;44.860;10.066;2022-08-05T07:51:55;3.78;;;2.35;;
28531;SDS011;15738;44.860;10.066;2022-08-05T07:54:41;7.10;;;2.40;;
28531;SDS011;15738;44.860;10.066;2022-08-05T07:57:33;3.47;;;2.30;;
28531;SDS011;15738;44.860;10.066;2022-08-05T08:00:38;5.85;;;2.08;;
28531;SDS011;15738;44.860;10.066;2022-08-05T08:03:25;7.65;;;2.42;;
28531;SDS011;15738;44.860;10.066;2022-08-05T08:06:28;5.10;;;2.33;;
28531;SDS011;15738;44.860;10.066;2022-08-05T08:09:14;7.95;;;2.13;;
28531;SDS011;15738;44.860;10.066;2022-08-05T08:12:03;11.57;;;2.80;;
28531;SDS011;15738;44.860;10.066;2022-08-05T08:15:10;3.15;;;2.05;;
28531;SDS011;15738;44.860;10.066;2022-08-05T08:18:00;8.00;;;2.20;;
28531;SDS011;15738;44.860;10.066;2022-08-05T08:20:47;10.13;;;2.80;;
28531;SDS011;15738;44.860;10.066;2022-08-05T08:23:48;7.20;;;2.35;;
28531;SDS011;15738;44.860;10.066;2022-08-05T08:26:48;6.50;;;2.20;;
28531;SDS011;15738;44.860;10.066;2022-08-05T08:29:36;6.03;;;2.28;;
28531;SDS011;15738;44.860;10.066;2022-08-05T08:32:42;11.20;;;2.58;;
28531;SDS011;15738;44.860;10.066;2022-08-05T08:35:28;7.38;;;2.22;;
28531;SDS011;15738;44.860;10.066;2022-08-05T08:38:25;6.10;;;2.67;;
28531;SDS011;15738;44.860;10.066;2022-08-05T08:41:21;15.85;;;3.03;;
28531;SDS011;15738;44.860;10.066;2022-08-05T08:44:30;5.07;;;2.33;;
28531;SDS011;15738;44.860;10.066;2022-08-05T08:47:37;6.93;;;2.50;;
28531;SDS011;15738;44.860;10.066;2022-08-05T08:50:43;4.53;;;2.17;;
28531;SDS011;15738;44.860;10.066;2022-08-05T08:53:51;9.13;;;2.08;;
28531;SDS011;15738;44.860;10.066;2022-08-05T08:56:38;9.77;;;2.90;;
28531;SDS011;15738;44.860;10.066;2022-08-05T08:59:33;6.00;;;2.10;;
28531;SDS011;15738;44.860;10.066;2022-08-05T09:02:20;5.63;;;1.92;;
28531;SDS011;15738;44.860;10.066;2022-08-05T09:05:11;6.97;;;2.13;;
28531;SDS011;15738;44.860;10.066;2022-08-05T09:08:02;6.07;;;1.85;;
28531;SDS011;15738;44.860;10.066;2022-08-05T09:10:48;7.80;;;2.53;;
28531;SDS011;15738;44.860;10.066;2022-08-05T09:13:36;10.52;;;2.25;;
28531;SDS011;15738;44.860;10.066;2022-08-05T09:16:43;5.70;;;2.03;;
28531;SDS011;15738;44.860;10.066;2022-08-05T09:19:33;7.60;;;1.92;;
28531;SDS011;15738;44.860;10.066;2022-08-05T09:26:07;6.65;;;2.40;;
28531;SDS011;15738;44.860;10.066;2022-08-05T09:29:06;3.80;;;1.85;;
28531;SDS011;15738;44.860;10.066;2022-08-05T09:32:05;13.88;;;2.47;;
28531;SDS011;15738;44.860;10.066;2022-08-05T09:35:13;9.00;;;2.13;;
28531;SDS011;15738;44.860;10.066;2022-08-05T09:38:11;10.80;;;2.35;;
28531;SDS011;15738;44.860;10.066;2022-08-05T09:41:11;3.47;;;2.00;;
28531;SDS011;15738;44.860;10.066;2022-08-05T09:44:00;7.18;;;2.17;;
28531;SDS011;15738;44.860;10.066;2022-08-05T09:46:48;5.90;;;2.15;;
28531;SDS011;15738;44.860;10.066;2022-08-05T09:49:42;11.18;;;2.33;;
28531;SDS011;15738;44.860;10.066;2022-08-05T09:52:46;5.82;;;1.80;;
28531;SDS011;15738;44.860;10.066;2022-08-05T09:55:40;7.85;;;2.30;;
28531;SDS011;15738;44.860;10.066;2022-08-05T10:01:49;4.88;;;1.77;;
28531;SDS011;15738;44.860;10.066;2022-08-05T10:04:42;5.20;;;1.95;;
28531;SDS011;15738;44.860;10.066;2022-08-05T10:07:52;5.45;;;2.10;;
28531;SDS011;15738;44.860;10.066;2022-08-05T10:10:55;3.17;;;2.10;;
28531;SDS011;15738;44.860;10.066;2022-08-05T10:13:42;8.63;;;2.10;;
28531;SDS011;15738;44.860;10.066;2022-08-05T10:16:33;3.17;;;2.15;;
28531;SDS011;15738;44.860;10.066;2022-08-05T10:19:36;6.32;;;2.10;;
28531;SDS011;15738;44.860;10.066;2022-08-05T10:22:42;8.32;;;1.95;;
28531;SDS011;15738;44.860;10.066;2022-08-05T10:25:34;10.43;;;1.77;;
28531;SDS011;15738;44.860;10.066;2022-08-05T10:28:21;8.07;;;2.33;;
28531;SDS011;15738;44.860;10.066;2022-08-05T10:34:20;5.20;;;2.22;;
28531;SDS011;15738;44.860;10.066;2022-08-05T10:37:14;9.57;;;2.17;;
28531;SDS011;15738;44.860;10.066;2022-08-05T10:40:03;8.57;;;2.00;;
28531;SDS011;15738;44.860;10.066;2022-08-05T10:46:15;3.20;;;1.97;;
28531;SDS011;15738;44.860;10.066;2022-08-05T10:49:08;6.28;;;1.90;;
28531;SDS011;15738;44.860;10.066;2022-08-05T10:52:00;4.43;;;2.00;;
28531;SDS011;15738;44.860;10.066;2022-08-05T10:55:32;7.45;;;2.00;;
28531;SDS011;15738;44.860;10.066;2022-08-05T10:58:06;4.00;;;2.33;;
28531;SDS011;15738;44.860;10.066;2022-08-05T11:00:55;10.60;;;2.38;;
28531;SDS011;15738;44.860;10.066;2022-08-05T11:07:06;5.47;;;2.40;;
28531;SDS011;15738;44.860;10.066;2022-08-05T11:09:52;5.05;;;2.22;;
28531;SDS011;15738;44.860;10.066;2022-08-05T11:12:54;5.45;;;1.77;;
28531;SDS011;15738;44.860;10.066;2022-08-05T11:15:41;11.48;;;2.05;;
28531;SDS011;15738;44.860;10.066;2022-08-05T11:18:46;7.28;;;2.35;;
28531;SDS011;15738;44.860;10.066;2022-08-05T11:21:35;7.05;;;2.00;;
28531;SDS011;15738;44.860;10.066;2022-08-05T11:24:33;2.95;;;1.80;;
28531;SDS011;15738;44.860;10.066;2022-08-05T11:27:29;9.40;;;2.50;;
28531;SDS011;15738;44.860;10.066;2022-08-05T11:39:47;3.90;;;1.50;;
28531;SDS011;15738;44.860;10.066;2022-08-05T11:42:39;11.15;;;1.73;;
28531;SDS011;15738;44.860;10.066;2022-08-05T11:45:30;2.95;;;1.30;;
28531;SDS011;15738;44.860;10.066;2022-08-05T11:48:40;7.95;;;1.42;;
28531;SDS011;15738;44.860;10.066;2022-08-05T11:51:27;4.20;;;1.63;;
28531;SDS011;15738;44.860;10.066;2022-08-05T11:54:32;3.35;;;1.40;;
28531;SDS011;15738;44.860;10.066;2022-08-05T11:57:19;3.88;;;1.50;;
28531;SDS011;15738;44.860;10.066;2022-08-05T12:00:28;2.50;;;1.83;;
28531;SDS011;15738;44.860;10.066;2022-08-05T12:03:52;6.95;;;1.88;;
28531;SDS011;15738;44.860;10.066;2022-08-05T12:06:40;5.13;;;1.95;;
28531;SDS011;15738;44.860;10.066;2022-08-05T12:09:37;7.20;;;1.90;;
28531;SDS011;15738;44.860;10.066;2022-08-05T12:12:37;8.00;;;1.75;;
28531;SDS011;15738;44.860;10.066;2022-08-05T12:15:43;6.68;;;2.00;;
28531;SDS011;15738;44.860;10.066;2022-08-05T12:18:35;5.78;;;1.90;;
28531;SDS011;15738;44.860;10.066;2022-08-05T12:21:25;3.33;;;1.90;;
28531;SDS011;15738;44.860;10.066;2022-08-05T12:24:16;8.52;;;1.85;;
28531;SDS011;15738;44.860;10.066;2022-08-05T12:27:02;7.03;;;1.63;;
28531;SDS011;15738;44.860;10.066;2022-08-05T12:30:08;4.15;;;1.80;;
28531;SDS011;15738;44.860;10.066;2022-08-05T12:32:59;5.03;;;1.98;;
28531;SDS011;15738;44.860;10.066;2022-08-05T12:36:05;13.25;;;2.00;;
28531;SDS011;15738;44.860;10.066;2022-08-05T12:38:53;2.45;;;1.75;;
28531;SDS011;15738;44.860;10.066;2022-08-05T12:41:40;5.95;;;1.70;;
28531;SDS011;15738;44.860;10.066;2022-08-05T12:44:27;4.85;;;1.95;;
28531;SDS011;15738;44.860;10.066;2022-08-05T12:47:28;4.65;;;2.00;;
28531;SDS011;15738;44.860;10.066;2022-08-05T12:50:15;4.13;;;1.80;;
28531;SDS011;15738;44.860;10.066;2022-08-05T12:53:04;13.85;;;2.00;;
28531;SDS011;15738;44.860;10.066;2022-08-05T12:55:51;2.75;;;1.40;;
28531;SDS011;15738;44.860;10.066;2022-08-05T12:58:39;6.90;;;1.95;;
28531;SDS011;15738;44.860;10.066;2022-08-05T13:01:40;5.18;;;1.67;;
28531;SDS011;15738;44.860;10.066;2022-08-05T13:04:47;8.18;;;2.05;;
28531;SDS011;15738;44.860;10.066;2022-08-05T13:07:38;11.27;;;2.08;;
28531;SDS011;15738;44.860;10.066;2022-08-05T13:10:44;6.18;;;1.65;;
28531;SDS011;15738;44.860;10.066;2022-08-05T13:13:37;2.90;;;1.60;;
28531;SDS011;15738;44.860;10.066;2022-08-05T13:16:44;2.63;;;1.90;;
28531;SDS011;15738;44.860;10.066;2022-08-05T13:19:31;6.13;;;1.80;;
28531;SDS011;15738;44.860;10.066;2022-08-05T13:22:41;2.00;;;1.58;;
28531;SDS011;15738;44.860;10.066;2022-08-05T13:25:28;5.55;;;1.65;;
28531;SDS011;15738;44.860;10.066;2022-08-05T13:28:34;11.88;;;2.10;;
28531;SDS011;15738;44.860;10.066;2022-08-05T13:31:27;5.68;;;1.73;;
28531;SDS011;15738;44.860;10.066;2022-08-05T13:34:33;6.22;;;1.92;;
28531;SDS011;15738;44.860;10.066;2022-08-05T13:37:22;10.38;;;2.00;;
28531;SDS011;15738;44.860;10.066;2022-08-05T13:40:18;3.95;;;1.75;;
28531;SDS011;15738;44.860;10.066;2022-08-05T13:43:21;7.32;;;2.30;;
28531;SDS011;15738;44.860;10.066;2022-08-05T13:46:07;8.00;;;1.95;;
28531;SDS011;15738;44.860;10.066;2022-08-05T13:48:55;3.78;;;1.77;;
28531;SDS011;15738;44.860;10.066;2022-08-05T13:51:45;2.10;;;1.60;;
28531;SDS011;15738;44.860;10.066;2022-08-05T13:54:31;6.65;;;1.50;;
28531;SDS011;15738;44.860;10.066;2022-08-05T13:57:17;6.20;;;1.85;;
28531;SDS011;15738;44.860;10.066;2022-08-05T14:00:03;12.93;;;1.98;;
28531;SDS011;15738;44.860;10.066;2022-08-05T14:02:53;10.40;;;2.20;;
28531;SDS011;15738;44.860;10.066;2022-08-05T14:05:45;3.50;;;1.80;;
28531;SDS011;15738;44.860;10.066;2022-08-05T14:08:51;12.07;;;2.22;;
28531;SDS011;15738;44.860;10.066;2022-08-05T14:11:36;7.07;;;1.90;;
28531;SDS011;15738;44.860;10.066;2022-08-05T14:14:45;9.18;;;1.90;;
28531;SDS011;15738;44.860;10.066;2022-08-05T14:17:31;18.13;;;2.13;;
28531;SDS011;15738;44.860;10.066;2022-08-05T14:20:17;5.60;;;1.75;;
28531;SDS011;15738;44.860;10.066;2022-08-05T14:23:11;4.85;;;2.08;;
28531;SDS011;15738;44.860;10.066;2022-08-05T14:25:58;7.00;;;2.03;;
28531;SDS011;15738;44.860;10.066;2022-08-05T14:28:44;2.80;;;1.67;;
28531;SDS011;15738;44.860;10.066;2022-08-05T14:31:36;7.10;;;1.90;;
28531;SDS011;15738;44.860;10.066;2022-08-05T14:34:42;3.00;;;2.00;;
28531;SDS011;15738;44.860;10.066;2022-08-05T14:37:30;7.22;;;1.85;;
28531;SDS011;15738;44.860;10.066;2022-08-05T14:40:34;9.48;;;2.20;;
28531;SDS011;15738;44.860;10.066;2022-08-05T14:43:20;4.47;;;1.73;;
28531;SDS011;15738;44.860;10.066;2022-08-05T14:46:27;15.00;;;2.05;;
28531;SDS011;15738;44.860;10.066;2022-08-05T14:49:14;5.45;;;1.80;;
28531;SDS011;15738;44.860;10.066;2022-08-05T14:52:00;5.13;;;1.98;;
28531;SDS011;15738;44.860;10.066;2022-08-05T14:54:46;4.38;;;1.77;;
28531;SDS011;15738;44.860;10.066;2022-08-05T14:57:37;9.38;;;2.03;;
28531;SDS011;15738;44.860;10.066;2022-08-05T15:00:40;4.78;;;2.10;;
28531;SDS011;15738;44.860;10.066;2022-08-05T15:03:43;3.72;;;1.63;;
28531;SDS011;15738;44.860;10.066;2022-08-05T15:06:33;6.20;;;1.67;;
28531;SDS011;15738;44.860;10.066;2022-08-05T15:09:19;3.60;;;1.70;;
28531;SDS011;15738;44.860;10.066;2022-08-05T15:12:26;4.50;;;1.98;;
28531;SDS011;15738;44.860;10.066;2022-08-05T15:15:29;5.82;;;2.22;;
28531;SDS011;15738;44.860;10.066;2022-08-05T15:18:35;4.75;;;1.95;;
28531;SDS011;15738;44.860;10.066;2022-08-05T15:21:21;3.97;;;1.75;;
28531;SDS011;15738;44.860;10.066;2022-08-05T15:24:08;5.07;;;1.90;;
28531;SDS011;15738;44.860;10.066;2022-08-05T15:26:54;6.05;;;1.70;;
28531;SDS011;15738;44.860;10.066;2022-08-05T15:29:41;6.10;;;1.90;;
28531;SDS011;15738;44.860;10.066;2022-08-05T15:32:27;1.88;;;1.70;;
28531;SDS011;15738;44.860;10.066;2022-08-05T15:35:13;3.55;;;1.80;;
28531;SDS011;15738;44.860;10.066;2022-08-05T15:38:00;1.85;;;1.73;;
28531;SDS011;15738;44.860;10.066;2022-08-05T15:41:05;3.63;;;1.83;;
28531;SDS011;15738;44.860;10.066;2022-08-05T15:44:08;3.20;;;1.73;;
28531;SDS011;15738;44.860;10.066;2022-08-05T15:46:54;3.53;;;1.80;;
28531;SDS011;15738;44.860;10.066;2022-08-05T15:49:41;4.38;;;2.20;;
28531;SDS011;15738;44.860;10.066;2022-08-05T15:52:42;9.65;;;1.95;;
28531;SDS011;15738;44.860;10.066;2022-08-05T15:55:40;6.18;;;1.73;;
28531;SDS011;15738;44.860;10.066;2022-08-05T15:58:46;5.22;;;2.05;;
28531;SDS011;15738;44.860;10.066;2022-08-05T16:01:32;2.88;;;1.95;;
28531;SDS011;15738;44.860;10.066;2022-08-05T16:04:37;2.53;;;1.73;;
28531;SDS011;15738;44.860;10.066;2022-08-05T16:07:23;2.88;;;1.50;;
28531;SDS011;15738;44.860;10.066;2022-08-05T16:10:13;4.80;;;2.03;;
28531;SDS011;15738;44.860;10.066;2022-08-05T16:13:03;3.13;;;1.80;;
28531;SDS011;15738;44.860;10.066;2022-08-05T16:15:49;5.07;;;2.00;;
28531;SDS011;15738;44.860;10.066;2022-08-05T16:18:36;3.67;;;1.65;;
28531;SDS011;15738;44.860;10.066;2022-08-05T16:21:37;2.25;;;1.70;;
28531;SDS011;15738;44.860;10.066;2022-08-05T16:24:43;4.63;;;1.80;;
28531;SDS011;15738;44.860;10.066;2022-08-05T16:27:37;3.38;;;1.88;;
28531;SDS011;15738;44.860;10.066;2022-08-05T16:30:42;4.28;;;1.83;;
28531;SDS011;15738;44.860;10.066;2022-08-05T16:33:30;13.73;;;2.03;;
28531;SDS011;15738;44.860;10.066;2022-08-05T16:36:26;2.28;;;1.65;;
28531;SDS011;15738;44.860;10.066;2022-08-05T16:39:12;5.85;;;1.70;;
28531;SDS011;15738;44.860;10.066;2022-08-05T16:41:58;4.90;;;1.98;;
28531;SDS011;15738;44.860;10.066;2022-08-05T16:45:04;5.13;;;1.90;;
28531;SDS011;15738;44.860;10.066;2022-08-05T16:48:10;6.80;;;1.77;;
28531;SDS011;15738;44.860;10.066;2022-08-05T16:51:10;3.80;;;1.67;;
28531;SDS011;15738;44.860;10.066;2022-08-05T16:53:56;4.18;;;2.15;;
28531;SDS011;15738;44.860;10.066;2022-08-05T16:56:53;2.80;;;1.80;;
28531;SDS011;15738;44.860;10.066;2022-08-05T16:59:40;3.13;;;1.73;;
28531;SDS011;15738;44.860;10.066;2022-08-05T17:02:46;4.57;;;1.80;;
28531;SDS011;15738;44.860;10.066;2022-08-05T17:05:35;2.72;;;1.70;;
28531;SDS011;15738;44.860;10.066;2022-08-05T17:08:21;4.03;;;1.80;;
28531;SDS011;15738;44.860;10.066;2022-08-05T17:11:27;6.03;;;1.85;;
28531;SDS011;15738;44.860;10.066;2022-08-05T17:17:22;5.15;;;1.83;;
28531;SDS011;15738;44.860;10.066;2022-08-05T17:20:26;6.32;;;1.90;;
28531;SDS011;15738;44.860;10.066;2022-08-05T17:23:12;3.92;;;1.80;;
28531;SDS011;15738;44.860;10.066;2022-08-05T17:26:18;2.05;;;1.67;;
28531;SDS011;15738;44.860;10.066;2022-08-05T17:29:07;4.70;;;1.80;;
28531;SDS011;15738;44.860;10.066;2022-08-05T17:31:54;6.80;;;2.22;;
28531;SDS011;15738;44.860;10.066;2022-08-05T17:34:46;4.93;;;1.83;;
28531;SDS011;15738;44.860;10.066;2022-08-05T17:37:33;4.40;;;2.50;;
28531;SDS011;15738;44.860;10.066;2022-08-05T17:40:28;6.35;;;2.05;;
28531;SDS011;15738;44.860;10.066;2022-08-05T17:43:15;6.60;;;2.58;;
28531;SDS011;15738;44.860;10.066;2022-08-05T17:46:01;5.50;;;2.38;;
28531;SDS011;15738;44.860;10.066;2022-08-05T17:48:48;7.10;;;2.60;;
28531;SDS011;15738;44.860;10.066;2022-08-05T17:51:36;13.57;;;2.80;;